Time;durP1;ratioP1;P1;durP2;ratioP2;P2;SDS_P1;SDS_P2;PMS_P1;PMS_P2;Temp;Humidity;BMP_temperature;BMP_pressure;BME280_temperature;BME280_humidity;BME280_pressure;Samples;Min_cycle;Max_cycle;Signal;HPM_P1;HPM_P2
2021/05/25 00:02:06;;;;;;;1.25;0.60;;;22.00;55.80;;;;;;5099213;28;20015;-34
2021/05/25 00:04:32;;;;;;;0.65;0.57;;;22.10;55.70;;;;;;5099204;28;20084;-34
2021/05/25 00:06:58;;;;;;;1.02;0.70;;;22.10;55.70;;;;;;5089336;28;20657;-34
2021/05/25 00:09:23;;;;;;;2.65;0.60;;;22.10;55.60;;;;;;5097475;28;20128;-34
2021/05/25 00:11:49;;;;;;;0.70;0.40;;;22.10;55.60;;;;;;5099659;28;20038;-34
2021/05/25 00:14:19;;;;;;;0.75;0.60;;;22.10;55.50;;;;;;5099296;28;20111;-35
2021/05/25 00:16:45;;;;;;;0.65;0.65;;;22.00;55.60;;;;;;5091272;28;20558;-35
2021/05/25 00:19:11;;;;;;;1.25;0.63;;;22.10;55.70;;;;;;5104300;28;20032;-35
2021/05/25 00:21:36;;;;;;;0.82;0.60;;;22.10;55.60;;;;;;5087023;28;20035;-34
2021/05/25 00:24:02;;;;;;;1.00;0.60;;;22.00;55.80;;;;;;5087973;28;20748;-35
2021/05/25 00:26:27;;;;;;;0.50;0.50;;;22.00;55.70;;;;;;5085628;28;20056;-35
2021/05/25 00:28:53;;;;;;;0.65;0.65;;;22.00;55.70;;;;;;5085884;28;20032;-36
2021/05/25 00:31:19;;;;;;;2.53;0.63;;;22.00;55.70;;;;;;5085404;28;20032;-32
2021/05/25 00:33:44;;;;;;;1.02;0.57;;;22.00;55.70;;;;;;5085849;28;20024;-34
2021/05/25 00:36:11;;;;;;;1.00;0.65;;;22.10;55.50;;;;;;5087991;28;20020;-33
2021/05/25 00:38:37;;;;;;;0.60;0.40;;;22.10;56.20;;;;;;5090543;28;20024;-35
2021/05/25 00:41:03;;;;;;;2.05;0.60;;;22.00;55.50;;;;;;5092188;28;20092;-34
2021/05/25 00:43:28;;;;;;;0.63;0.47;;;22.10;55.60;;;;;;5076316;28;20040;-34
2021/05/25 00:45:54;;;;;;;0.60;0.55;;;22.00;55.70;;;;;;5088721;28;20025;-35
2021/05/25 00:48:20;;;;;;;0.75;0.70;;;22.00;55.70;;;;;;5097102;28;21031;-35
2021/05/25 00:50:46;;;;;;;0.47;0.35;;;22.00;55.50;;;;;;5089311;28;20031;-34
2021/05/25 00:53:11;;;;;;;0.80;0.75;;;22.00;55.70;;;;;;5088940;28;20039;-35
2021/05/25 00:55:38;;;;;;;1.00;0.55;;;21.90;55.80;;;;;;5091975;28;20106;-33
2021/05/25 00:58:05;;;;;;;0.82;0.50;;;22.00;55.60;;;;;;5089273;28;20166;-35
2021/05/25 01:00:39;;;;;;;1.00;0.60;;;22.00;55.70;;;;;;5094190;28;20594;-36
2021/05/25 01:03:05;;;;;;;1.73;0.60;;;21.90;55.80;;;;;;5095449;28;20028;-34
2021/05/25 01:05:31;;;;;;;0.90;0.57;;;21.90;55.70;;;;;;5089815;28;20111;-35
2021/05/25 01:07:58;;;;;;;1.08;0.60;;;21.90;55.80;;;;;;5091644;28;20194;-34
2021/05/25 01:10:46;;;;;;;2.53;0.55;;;21.80;55.90;;;;;;5090104;28;20518;-34
2021/05/25 01:13:18;;;;;;;0.70;0.70;;;21.80;56.10;;;;;;5083964;28;20556;-35
2021/05/25 01:15:45;;;;;;;0.80;0.52;;;21.90;55.90;;;;;;5091740;28;20111;-35
2021/05/25 01:18:10;;;;;;;0.70;0.50;;;21.90;55.70;;;;;;5093821;28;20024;-35
2021/05/25 01:20:37;;;;;;;1.17;0.55;;;21.90;55.80;;;;;;5089018;28;20128;-35
2021/05/25 01:23:03;;;;;;;1.98;0.60;;;21.90;55.80;;;;;;5091758;28;20651;-34
2021/05/25 01:25:29;;;;;;;1.77;0.55;;;21.90;55.70;;;;;;5091356;28;20114;-35
2021/05/25 01:28:03;;;;;;;0.73;0.70;;;21.90;55.60;;;;;;5088511;28;20036;-35
2021/05/25 01:30:30;;;;;;;1.17;0.47;;;21.90;55.60;;;;;;5075357;28;20035;-34
2021/05/25 01:32:56;;;;;;;1.58;0.80;;;21.90;55.70;;;;;;5092430;28;20102;-35
2021/05/25 01:35:23;;;;;;;0.38;0.30;;;21.80;56.50;;;;;;5088956;28;20569;-34
2021/05/25 01:37:48;;;;;;;0.50;0.40;;;21.90;55.60;;;;;;5089193;28;20047;-35
2021/05/25 01:40:15;;;;;;;0.82;0.60;;;21.90;55.60;;;;;;5089028;28;20498;-34
2021/05/25 01:42:40;;;;;;;0.57;0.50;;;21.90;55.50;;;;;;5091613;28;20027;-35
2021/05/25 01:45:07;;;;;;;0.45;0.45;;;22.00;55.50;;;;;;5095071;28;20024;-35
2021/05/25 01:47:33;;;;;;;0.60;0.43;;;21.90;55.40;;;;;;5073731;28;20479;-35
2021/05/25 01:50:11;;;;;;;0.75;0.60;;;21.90;55.50;;;;;;5092613;28;20031;-35
2021/05/25 01:52:39;;;;;;;2.22;0.52;;;21.90;55.40;;;;;;5091568;28;20037;-35
2021/05/25 01:55:07;;;;;;;0.40;0.30;;;21.90;55.40;;;;;;5070590;28;20775;-36
2021/05/25 01:57:34;;;;;;;3.15;0.77;;;21.90;55.50;;;;;;5092736;28;20040;-37
2021/05/25 01:59:59;;;;;;;1.20;0.70;;;21.90;55.50;;;;;;5087763;28;20075;-34
2021/05/25 02:02:25;;;;;;;0.70;0.52;;;21.90;55.60;;;;;;5089271;28;20047;-37
2021/05/25 02:04:50;;;;;;;0.68;0.57;;;21.80;55.60;;;;;;5088312;28;20085;-33
2021/05/25 02:07:19;;;;;;;1.50;0.90;;;21.90;55.60;;;;;;5088039;28;20556;-35
2021/05/25 02:09:45;;;;;;;1.52;0.52;;;21.90;55.60;;;;;;5089219;28;20481;-35
2021/05/25 02:12:17;;;;;;;0.80;0.50;;;21.90;55.50;;;;;;5095098;28;20069;-34
2021/05/25 02:14:42;;;;;;;0.77;0.50;;;21.90;55.50;;;;;;5086179;28;20390;-35
2021/05/25 02:17:08;;;;;;;0.65;0.38;;;21.90;55.60;;;;;;5106629;27;20092;-33
2021/05/25 02:19:33;;;;;;;0.35;0.35;;;21.80;55.50;;;;;;5090579;28;20062;-35
2021/05/25 02:21:59;;;;;;;1.60;0.57;;;21.90;55.50;;;;;;5087507;28;20082;-34
2021/05/25 02:24:25;;;;;;;0.55;0.50;;;21.90;55.50;;;;;;5094967;28;20389;-34
2021/05/25 02:26:50;;;;;;;0.95;0.60;;;21.80;55.40;;;;;;5088959;28;20035;-34
2021/05/25 02:29:16;;;;;;;0.50;0.40;;;21.90;55.40;;;;;;5091330;28;20027;-34
2021/05/25 02:31:41;;;;;;;2.13;0.55;;;21.70;55.60;;;;;;5090388;28;20453;-35
2021/05/25 02:34:07;;;;;;;0.77;0.60;;;21.80;55.60;;;;;;5087440;28;20074;-34
2021/05/25 02:36:33;;;;;;;0.50;0.50;;;21.80;55.60;;;;;;5074377;28;20114;-34
2021/05/25 02:38:58;;;;;;;0.50;0.50;;;21.80;55.60;;;;;;5074550;28;20028;-34
2021/05/25 02:41:24;;;;;;;0.70;0.55;;;21.80;55.60;;;;;;5090061;28;20036;-34
2021/05/25 02:43:50;;;;;;;1.02;0.60;;;21.80;55.60;;;;;;5091379;28;20041;-34
2021/05/25 02:46:16;;;;;;;0.80;0.40;;;21.80;55.50;;;;;;5085604;28;20025;-34
2021/05/25 02:48:41;;;;;;;0.88;0.55;;;21.80;55.50;;;;;;5089040;28;20085;-34
2021/05/25 02:51:07;;;;;;;1.00;0.57;;;21.80;56.10;;;;;;5088655;28;20024;-35
2021/05/25 02:53:33;;;;;;;0.88;0.50;;;21.80;55.40;;;;;;5091416;28;20114;-35
2021/05/25 02:55:58;;;;;;;0.55;0.40;;;21.80;55.40;;;;;;5090148;28;20032;-35
2021/05/25 02:58:24;;;;;;;1.02;0.47;;;21.80;55.40;;;;;;5090109;28;20031;-35
2021/05/25 03:00:49;;;;;;;0.95;0.50;;;21.80;56.10;;;;;;5087965;28;20481;-33
2021/05/25 03:03:15;;;;;;;0.50;0.40;;;21.80;56.10;;;;;;5094270;28;20024;-35
2021/05/25 03:05:41;;;;;;;0.43;0.40;;;21.80;55.50;;;;;;5088030;28;20028;-34
2021/05/25 03:08:08;;;;;;;1.30;0.57;;;21.80;55.40;;;;;;5091316;28;20089;-38
2021/05/25 03:10:35;;;;;;;0.60;0.50;;;21.80;55.50;;;;;;5093008;28;20031;-35
2021/05/25 03:13:01;;;;;;;0.40;0.40;;;21.80;55.40;;;;;;5099860;28;20024;-33
2021/05/25 03:15:28;;;;;;;0.60;0.38;;;21.80;55.40;;;;;;5106077;28;20028;-34
2021/05/25 03:17:54;;;;;;;1.38;0.50;;;21.80;55.40;;;;;;5094359;28;20038;-34
2021/05/25 03:20:20;;;;;;;0.75;0.60;;;21.80;55.60;;;;;;5097044;28;20039;-33
2021/05/25 03:22:45;;;;;;;1.27;0.60;;;21.80;55.50;;;;;;5095550;28;20019;-34
2021/05/25 03:25:12;;;;;;;0.77;0.70;;;21.80;55.50;;;;;;5092069;28;20512;-34
2021/05/25 03:27:37;;;;;;;0.70;0.47;;;21.80;55.50;;;;;;5076348;28;20621;-33
2021/05/25 03:30:05;;;;;;;0.80;0.40;;;21.60;55.80;;;;;;5095453;28;20081;-34
2021/05/25 03:32:30;;;;;;;0.45;0.45;;;21.70;55.60;;;;;;5100672;28;20028;-34
2021/05/25 03:34:56;;;;;;;0.60;0.60;;;21.70;55.60;;;;;;5093907;28;20028;-34
2021/05/25 03:37:21;;;;;;;0.77;0.50;;;21.70;55.50;;;;;;5092027;28;20428;-34
2021/05/25 03:39:47;;;;;;;0.60;0.40;;;21.70;55.50;;;;;;5092170;28;20053;-34
2021/05/25 03:42:12;;;;;;;0.82;0.40;;;21.70;55.30;;;;;;5096483;28;20130;-34
2021/05/25 03:44:38;;;;;;;1.23;0.60;;;21.70;55.50;;;;;;5088702;28;20040;-34
2021/05/25 03:47:04;;;;;;;0.75;0.57;;;21.70;55.40;;;;;;5089072;28;20027;-33
2021/05/25 03:49:29;;;;;;;0.63;0.50;;;21.70;55.40;;;;;;5091538;28;20135;-34
2021/05/25 03:51:55;;;;;;;0.50;0.50;;;21.70;55.40;;;;;;5089518;28;20025;-34
2021/05/25 03:54:33;;;;;;;1.30;0.60;;;21.70;55.40;;;;;;5097424;28;20225;-35
2021/05/25 03:57:12;;;;;;;0.82;0.60;;;21.70;55.40;;;;;;5094511;28;20024;-35
2021/05/25 03:59:38;;;;;;;0.45;0.45;;;21.70;55.50;;;;;;5093012;28;20050;-33
2021/05/25 04:02:03;;;;;;;0.80;0.40;;;21.70;55.40;;;;;;5089920;28;20032;-34
2021/05/25 04:04:30;;;;;;;0.93;0.60;;;21.80;55.40;;;;;;5089095;28;20028;-34
2021/05/25 04:06:56;;;;;;;0.60;0.40;;;21.80;56.00;;;;;;5102216;28;20051;-35
2021/05/25 04:09:21;;;;;;;0.65;0.55;;;21.70;55.30;;;;;;5096963;28;20493;-34
2021/05/25 04:11:47;;;;;;;1.00;0.50;;;21.70;55.30;;;;;;5093337;28;20028;-34
2021/05/25 04:14:13;;;;;;;1.02;0.60;;;21.70;55.40;;;;;;5093146;28;20439;-33
2021/05/25 04:16:40;;;;;;;0.82;0.50;;;21.70;55.30;;;;;;5094864;28;20031;-34
2021/05/25 04:19:06;;;;;;;0.75;0.50;;;21.70;55.40;;;;;;5089652;28;20497;-34
2021/05/25 04:21:31;;;;;;;0.82;0.40;;;21.60;55.50;;;;;;5096137;28;20028;-34
2021/05/25 04:23:57;;;;;;;0.88;0.63;;;21.70;56.10;;;;;;5078268;28;20028;-34
2021/05/25 04:26:24;;;;;;;1.30;0.70;;;21.60;55.40;;;;;;5069359;28;20549;-34
2021/05/25 04:28:49;;;;;;;0.82;0.73;;;21.70;55.50;;;;;;5077323;28;20020;-34
2021/05/25 04:31:15;;;;;;;0.85;0.50;;;21.60;55.60;;;;;;5090095;28;20108;-35
2021/05/25 04:33:40;;;;;;;0.52;0.43;;;21.60;56.30;;;;;;5091292;28;20030;-34
2021/05/25 04:36:06;;;;;;;0.85;0.50;;;21.60;55.70;;;;;;5086008;28;20040;-35
2021/05/25 04:38:32;;;;;;;0.77;0.50;;;21.60;55.70;;;;;;5082721;28;20024;-34
2021/05/25 04:40:57;;;;;;;2.03;0.40;;;21.70;55.60;;;;;;5086842;28;20036;-33
2021/05/25 04:43:23;;;;;;;2.28;0.82;;;21.60;55.70;;;;;;5089313;28;20497;-35
2021/05/25 04:45:49;;;;;;;0.63;0.40;;;21.60;55.80;;;;;;5088079;28;20039;-35
2021/05/25 04:48:16;;;;;;;0.90;0.60;;;21.60;55.70;;;;;;5092641;28;20023;-35
2021/05/25 04:50:42;;;;;;;1.38;0.50;;;21.60;55.60;;;;;;5089567;28;20040;-34
2021/05/25 04:53:08;;;;;;;2.50;0.50;;;21.60;55.50;;;;;;5092545;28;20393;-34
2021/05/25 04:55:33;;;;;;;1.27;0.70;;;21.60;55.50;;;;;;5088099;28;20028;-33
2021/05/25 04:57:59;;;;;;;1.42;0.60;;;21.50;55.40;;;;;;5087034;28;20032;-34
2021/05/25 05:00:26;;;;;;;1.95;0.63;;;21.50;55.40;;;;;;5099409;28;20048;-35
2021/05/25 05:02:52;;;;;;;4.30;0.80;;;21.40;56.30;;;;;;5091314;28;20103;-33
2021/05/25 05:05:18;;;;;;;1.52;0.70;;;21.40;55.90;;;;;;5094960;28;20023;-36
2021/05/25 05:07:44;;;;;;;6.05;0.90;;;21.30;56.20;;;;;;5094917;28;20028;-41
2021/05/25 05:10:10;;;;;;;1.45;0.68;;;21.30;56.10;;;;;;5086250;28;20020;-34
2021/05/25 05:12:35;;;;;;;4.00;0.93;;;21.30;56.20;;;;;;5091724;28;20032;-35
2021/05/25 05:15:01;;;;;;;2.10;0.68;;;21.30;55.80;;;;;;5093517;28;20150;-35
2021/05/25 05:17:28;;;;;;;1.73;0.70;;;21.20;56.10;;;;;;5089005;28;20085;-37
2021/05/25 05:19:54;;;;;;;3.22;0.82;;;21.10;56.50;;;;;;5090463;28;20040;-34
2021/05/25 05:22:20;;;;;;;2.53;1.25;;;21.10;56.60;;;;;;5089118;28;20038;-34
2021/05/25 05:24:46;;;;;;;3.25;0.95;;;21.20;56.00;;;;;;5101746;28;20405;-34
2021/05/25 05:27:12;;;;;;;6.05;0.85;;;21.20;56.40;;;;;;5092158;28;20085;-34
2021/05/25 05:29:37;;;;;;;5.75;0.85;;;21.20;56.00;;;;;;5091403;28;20632;-33
2021/05/25 05:32:03;;;;;;;4.57;1.08;;;21.20;55.80;;;;;;5090756;28;20020;-36
2021/05/25 05:34:29;;;;;;;4.25;1.00;;;21.20;55.90;;;;;;5088341;28;20039;-35
2021/05/25 05:36:55;;;;;;;4.82;1.17;;;20.90;56.30;;;;;;5091502;28;20047;-32
2021/05/25 05:39:20;;;;;;;4.50;1.10;;;20.90;56.60;;;;;;5093584;28;20043;-36
2021/05/25 05:41:46;;;;;;;7.65;1.10;;;20.90;56.50;;;;;;5093672;28;20401;-35
2021/05/25 05:44:12;;;;;;;2.47;0.88;;;20.90;56.50;;;;;;5091971;28;20032;-38
2021/05/25 05:46:38;;;;;;;2.10;0.70;;;20.90;56.70;;;;;;5082897;28;20113;-35
2021/05/25 05:49:03;;;;;;;1.83;1.00;;;20.80;56.90;;;;;;5087099;28;20028;-33
2021/05/25 05:51:30;;;;;;;2.60;1.02;;;20.60;57.10;;;;;;5095662;28;20060;-36
2021/05/25 05:53:56;;;;;;;1.00;0.77;;;20.70;57.90;;;;;;5092022;28;20016;-40
2021/05/25 05:56:22;;;;;;;2.67;1.15;;;20.60;57.40;;;;;;5091277;28;20086;-33
2021/05/25 05:58:48;;;;;;;1.80;0.85;;;20.60;57.40;;;;;;5093347;28;20482;-34
2021/05/25 06:01:13;;;;;;;1.05;0.77;;;20.70;57.00;;;;;;5088610;28;20456;-34
2021/05/25 06:03:39;;;;;;;5.13;0.98;;;20.80;56.80;;;;;;5091641;28;20032;-35
2021/05/25 06:06:06;;;;;;;2.40;0.77;;;20.90;57.30;;;;;;5093176;28;20129;-34
2021/05/25 06:08:31;;;;;;;2.28;0.95;;;20.80;57.30;;;;;;5090755;28;20051;-34
2021/05/25 06:10:57;;;;;;;2.00;0.90;;;20.90;57.30;;;;;;5081277;28;20540;-35
2021/05/25 06:13:26;;;;;;;1.00;0.77;;;21.00;56.60;;;;;;5089354;28;20069;-34
2021/05/25 06:15:58;;;;;;;3.50;0.88;;;21.10;56.30;;;;;;5088756;28;20043;-33
2021/05/25 06:18:23;;;;;;;1.23;0.80;;;21.10;56.10;;;;;;5094782;28;20501;-35
2021/05/25 06:20:49;;;;;;;2.28;0.70;;;21.00;56.30;;;;;;5090693;28;20052;-36
2021/05/25 06:23:14;;;;;;;1.17;0.95;;;21.00;56.20;;;;;;5091911;28;20066;-35
2021/05/25 06:25:40;;;;;;;2.00;0.80;;;21.00;56.40;;;;;;5089828;28;20027;-33
2021/05/25 06:28:06;;;;;;;1.33;0.60;;;20.90;56.40;;;;;;5086336;28;20585;-38
2021/05/25 06:30:32;;;;;;;2.08;0.95;;;21.00;56.50;;;;;;5093681;28;20078;-34
2021/05/25 06:32:58;;;;;;;3.60;1.08;;;20.90;56.30;;;;;;5090902;28;20032;-33
2021/05/25 06:35:24;;;;;;;1.88;0.70;;;20.80;56.20;;;;;;5092157;28;20039;-34
2021/05/25 06:37:49;;;;;;;3.42;0.85;;;20.80;56.70;;;;;;5090759;28;20393;-32
2021/05/25 06:40:15;;;;;;;1.92;0.95;;;20.70;57.20;;;;;;5087958;28;20591;-34
2021/05/25 06:42:41;;;;;;;1.02;0.73;;;20.70;56.30;;;;;;5090964;28;20386;-34
2021/05/25 06:45:08;;;;;;;3.65;0.90;;;20.80;56.30;;;;;;5076023;28;20562;-34
2021/05/25 06:47:33;;;;;;;4.80;1.00;;;20.80;56.20;;;;;;5091391;28;20533;-32
2021/05/25 06:49:59;;;;;;;2.67;0.90;;;20.80;56.10;;;;;;5091509;28;20123;-34
2021/05/25 06:52:25;;;;;;;1.58;0.80;;;20.80;55.60;;;;;;5089444;28;20505;-33
2021/05/25 06:54:50;;;;;;;2.05;0.63;;;20.80;56.00;;;;;;5088712;28;20040;-34
2021/05/25 06:57:16;;;;;;;2.58;1.02;;;20.80;55.60;;;;;;5093361;28;20405;-34
2021/05/25 06:59:41;;;;;;;1.85;0.90;;;20.70;55.80;;;;;;5089175;28;20121;-33
2021/05/25 07:02:08;;;;;;;3.00;0.77;;;20.60;56.10;;;;;;5089860;28;20044;-34
2021/05/25 07:04:34;;;;;;;2.22;0.80;;;20.70;55.90;;;;;;5090335;28;20072;-32
2021/05/25 07:06:59;;;;;;;1.25;0.65;;;20.70;56.10;;;;;;5086283;28;20548;-33
2021/05/25 07:09:25;;;;;;;1.48;1.02;;;20.70;56.10;;;;;;5094866;28;20027;-34
2021/05/25 07:11:50;;;;;;;2.63;0.98;;;20.70;56.10;;;;;;5090354;28;20024;-34
2021/05/25 07:14:16;;;;;;;2.13;1.00;;;20.60;56.90;;;;;;5090512;28;20451;-34
2021/05/25 07:16:42;;;;;;;1.27;0.80;;;20.60;56.10;;;;;;5074995;28;20031;-34
2021/05/25 07:19:07;;;;;;;1.63;0.90;;;20.60;56.00;;;;;;5086853;28;20025;-34
2021/05/25 07:21:33;;;;;;;1.92;0.77;;;20.60;56.70;;;;;;5092859;28;20032;-34
2021/05/25 07:23:58;;;;;;;2.22;0.70;;;20.60;56.90;;;;;;5091432;28;20035;-36
2021/05/25 07:26:24;;;;;;;1.42;0.70;;;20.70;56.50;;;;;;5090400;28;20040;-32
2021/05/25 07:28:50;;;;;;;1.75;0.90;;;20.70;56.60;;;;;;5089749;28;20024;-34
2021/05/25 07:31:15;;;;;;;2.10;1.02;;;20.70;56.20;;;;;;5087453;28;20024;-34
2021/05/25 07:33:41;;;;;;;2.47;1.08;;;20.80;55.80;;;;;;5090338;28;20496;-35
2021/05/25 07:36:07;;;;;;;1.25;0.70;;;20.90;55.50;;;;;;5100426;28;20106;-39
2021/05/25 07:38:32;;;;;;;1.45;0.77;;;20.90;55.50;;;;;;5092753;28;20028;-38
2021/05/25 07:40:58;;;;;;;1.42;1.05;;;21.00;55.30;;;;;;5090072;28;20387;-32
2021/05/25 07:43:23;;;;;;;1.38;0.80;;;21.10;55.00;;;;;;5089030;28;20023;-33
2021/05/25 07:45:49;;;;;;;1.58;1.00;;;21.30;54.70;;;;;;5088367;28;20425;-34
2021/05/25 07:48:15;;;;;;;0.85;0.60;;;21.40;54.50;;;;;;5093024;28;20028;-33
2021/05/25 07:50:40;;;;;;;1.20;0.90;;;21.50;54.30;;;;;;5090100;28;20028;-34
2021/05/25 07:53:06;;;;;;;2.72;0.80;;;21.50;54.30;;;;;;5091769;28;20031;-35
2021/05/25 07:55:32;;;;;;;1.00;0.85;;;21.40;54.20;;;;;;5093881;28;20028;-34
2021/05/25 07:57:58;;;;;;;1.10;0.80;;;21.50;54.10;;;;;;5073522;28;20028;-34
2021/05/25 08:00:23;;;;;;;1.63;0.80;;;21.60;54.00;;;;;;5097453;28;20111;-34
2021/05/25 08:02:49;;;;;;;1.40;0.75;;;21.60;53.90;;;;;;5093748;28;20421;-34
2021/05/25 08:05:16;;;;;;;1.15;0.90;;;21.60;53.80;;;;;;5093626;28;20032;-37
2021/05/25 08:07:41;;;;;;;1.10;0.70;;;21.70;53.90;;;;;;5093557;28;20030;-34
2021/05/25 08:10:08;;;;;;;1.10;0.73;;;21.60;54.00;;;;;;5090294;28;20017;-36
2021/05/25 08:12:34;;;;;;;1.30;0.82;;;21.70;53.90;;;;;;5095250;28;20051;-34
2021/05/25 08:15:01;;;;;;;0.80;0.70;;;21.60;54.00;;;;;;5094775;28;20098;-36
2021/05/25 08:20:13;;;;;;;1.35;0.70;;;21.60;54.20;;;;;;5093285;28;20048;-34
2021/05/25 08:22:38;;;;;;;0.88;0.60;;;21.60;54.00;;;;;;5092979;28;20030;-34
2021/05/25 08:25:05;;;;;;;0.98;0.85;;;21.70;53.90;;;;;;5089050;28;20418;-34
2021/05/25 08:27:30;;;;;;;0.98;0.88;;;21.60;53.90;;;;;;5095493;28;20024;-34
2021/05/25 08:29:56;;;;;;;1.13;0.80;;;21.60;54.00;;;;;;5093007;28;20024;-34
2021/05/25 08:32:21;;;;;;;1.08;0.80;;;21.70;54.10;;;;;;5092334;28;20551;-34
2021/05/25 08:34:47;;;;;;;0.77;0.60;;;21.70;54.00;;;;;;5092226;28;20040;-34
2021/05/25 08:37:12;;;;;;;1.73;0.90;;;21.70;54.00;;;;;;5091671;28;20138;-33
2021/05/25 08:39:38;;;;;;;1.00;0.73;;;21.70;53.90;;;;;;5093574;28;20028;-32
2021/05/25 08:42:04;;;;;;;1.20;0.80;;;21.60;54.00;;;;;;5094661;28;20493;-34
2021/05/25 08:44:29;;;;;;;1.08;0.90;;;21.70;54.00;;;;;;5092352;28;20020;-35
2021/05/25 08:46:55;;;;;;;1.08;0.80;;;21.60;53.90;;;;;;5094258;28;20110;-34
2021/05/25 08:49:20;;;;;;;0.95;0.70;;;21.60;54.00;;;;;;5075061;28;20497;-34
2021/05/25 08:51:46;;;;;;;2.83;0.90;;;21.60;54.70;;;;;;5056190;28;20031;-34
2021/05/25 08:54:12;;;;;;;0.80;0.70;;;21.50;54.20;;;;;;5095274;28;20595;-34
2021/05/25 08:56:37;;;;;;;2.13;0.80;;;21.50;54.30;;;;;;5093823;28;20074;-34
2021/05/25 08:59:03;;;;;;;0.95;0.63;;;21.50;54.50;;;;;;5092441;28;20047;-34
2021/05/25 09:01:28;;;;;;;0.68;0.57;;;21.40;54.50;;;;;;5092997;28;20046;-33
2021/05/25 09:03:59;;;;;;;1.83;0.80;;;21.30;54.50;;;;;;5089226;28;20016;-34
2021/05/25 09:06:44;;;;;;;1.27;0.95;;;21.30;55.20;;;;;;5078718;28;20028;-34
2021/05/25 09:09:11;;;;;;;1.00;0.90;;;21.30;54.70;;;;;;5094317;28;20040;-34
2021/05/25 09:12:05;;;;;;;1.17;0.60;;;21.30;54.90;;;;;;5073958;28;20542;-34
2021/05/25 09:14:32;;;;;;;1.50;0.93;;;21.20;55.10;;;;;;5092377;28;20032;-38
2021/05/25 09:17:22;;;;;;;0.70;0.60;;;21.20;55.00;;;;;;5092339;28;20021;-32
2021/05/25 09:19:49;;;;;;;1.48;0.80;;;21.20;55.10;;;;;;5092011;28;20074;-34
2021/05/25 09:22:44;;;;;;;1.77;0.82;;;21.20;55.10;;;;;;5074568;28;20020;-34
2021/05/25 09:25:19;;;;;;;0.80;0.52;;;21.20;55.80;;;;;;5056763;28;20104;-36
2021/05/25 09:30:47;;;;;;;1.00;0.90;;;21.20;55.10;;;;;;5092866;28;20067;-34
2021/05/25 09:33:13;;;;;;;1.30;0.90;;;21.20;55.10;;;;;;5094545;28;20016;-34
2021/05/25 09:35:40;;;;;;;1.77;0.90;;;21.20;55.00;;;;;;5091915;28;20069;-32
2021/05/25 09:38:26;;;;;;;1.08;0.77;;;21.20;55.10;;;;;;5092721;28;20028;-34
2021/05/25 09:40:52;;;;;;;0.90;0.90;;;21.20;55.10;;;;;;5092409;28;20039;-34
2021/05/25 09:43:25;;;;;;;1.00;0.90;;;21.20;55.10;;;;;;5089465;28;20015;-34
2021/05/25 09:45:57;;;;;;;1.20;0.75;;;21.20;54.70;;;;;;5089677;28;20028;-34
2021/05/25 09:48:23;;;;;;;1.13;0.60;;;21.20;55.00;;;;;;5095422;28;20504;-35
2021/05/25 09:50:49;;;;;;;1.38;0.90;;;21.20;55.40;;;;;;5091240;28;20030;-34
2021/05/25 09:53:24;;;;;;;1.42;0.82;;;21.20;55.00;;;;;;5091175;28;20024;-33
2021/05/25 09:55:50;;;;;;;0.90;0.80;;;21.20;54.60;;;;;;5091330;28;20020;-36
2021/05/25 09:58:17;;;;;;;1.20;0.80;;;21.20;54.60;;;;;;5089459;28;20032;-34
2021/05/25 10:00:45;;;;;;;1.05;0.80;;;21.20;54.60;;;;;;5090898;28;20707;-34
2021/05/25 10:03:25;;;;;;;1.38;0.88;;;21.20;54.50;;;;;;5093502;28;20028;-35
2021/05/25 10:05:53;;;;;;;0.85;0.70;;;21.20;54.40;;;;;;5090428;28;20434;-39
2021/05/25 10:08:23;;;;;;;1.48;0.80;;;21.20;55.00;;;;;;5075768;28;20052;-33
2021/05/25 10:10:49;;;;;;;1.20;0.80;;;21.20;54.80;;;;;;5091004;28;20030;-37
2021/05/25 10:13:15;;;;;;;1.58;0.80;;;21.10;55.00;;;;;;5088501;28;20052;-35
2021/05/25 10:15:47;;;;;;;1.33;0.77;;;21.20;55.20;;;;;;5090993;28;20059;-34
2021/05/25 10:20:42;;;;;;;1.15;0.70;;;21.10;54.80;;;;;;5090583;28;20474;-35
2021/05/25 10:23:09;;;;;;;0.90;0.47;;;21.10;54.90;;;;;;5090473;28;20107;-35
2021/05/25 10:25:35;;;;;;;2.08;0.88;;;21.10;54.90;;;;;;5091084;28;20046;-34
2021/05/25 10:28:05;;;;;;;1.10;0.70;;;21.10;54.80;;;;;;5070111;28;20131;-35
2021/05/25 10:30:50;;;;;;;0.88;0.80;;;21.20;54.80;;;;;;5075653;28;20541;-36
2021/05/25 10:33:21;;;;;;;2.00;0.80;;;21.20;55.20;;;;;;5093834;28;20073;-35
2021/05/25 10:35:47;;;;;;;1.15;0.70;;;21.30;54.60;;;;;;5090819;28;20035;-35
2021/05/25 10:38:12;;;;;;;1.00;0.70;;;21.30;54.40;;;;;;5090732;28;20028;-35
2021/05/25 10:40:45;;;;;;;0.88;0.70;;;21.30;54.30;;;;;;5085935;28;20040;-34
2021/05/25 10:43:33;;;;;;;1.05;0.82;;;21.40;54.30;;;;;;5087498;28;20024;-36
2021/05/25 10:46:11;;;;;;;1.63;0.90;;;21.30;54.60;;;;;;5071719;28;20094;-34
2021/05/25 10:49:53;;;;;;;1.27;0.80;;;21.30;54.10;;;;;;5102008;28;20030;-34
2021/05/25 10:51:54;;;;;;;0.82;0.70;;;21.40;54.20;;;;;;4739779;28;10001496;-34
2021/05/25 10:54:42;;;;;;;1.77;0.85;;;21.50;54.10;;;;;;5090967;28;20131;-35
2021/05/25 10:57:37;;;;;;;2.13;0.75;;;21.40;54.00;;;;;;5090560;28;20013;-35
2021/05/25 11:00:08;;;;;;;1.20;0.82;;;21.40;54.10;;;;;;5088624;28;20135;-34
2021/05/25 11:02:52;;;;;;;0.95;0.73;;;21.40;53.90;;;;;;5084342;28;20123;-35
2021/05/25 11:05:30;;;;;;;1.38;0.98;;;21.50;53.80;;;;;;5087184;28;20028;-33
2021/05/25 11:08:01;;;;;;;0.90;0.70;;;21.50;53.60;;;;;;5081576;28;20118;-35
2021/05/25 11:10:26;;;;;;;1.10;0.70;;;21.60;53.70;;;;;;5063103;28;20028;-32
2021/05/25 11:13:14;;;;;;;1.20;0.70;;;21.60;53.70;;;;;;5095679;28;20036;-37
2021/05/25 11:16:02;;;;;;;2.03;0.68;;;21.70;53.30;;;;;;5074085;28;20933;-34
2021/05/25 11:18:34;;;;;;;0.95;0.80;;;21.60;53.30;;;;;;5081610;28;20450;-34
2021/05/25 11:23:58;;;;;;;0.73;0.60;;;21.50;54.10;;;;;;5088061;28;20036;-35
2021/05/25 11:26:54;;;;;;;2.10;0.70;;;21.60;53.40;;;;;;5081948;28;20040;-35
2021/05/25 11:29:21;;;;;;;1.60;1.10;;;21.60;53.20;;;;;;5092751;28;20047;-35
2021/05/25 11:31:47;;;;;;;1.98;1.30;;;21.60;53.10;;;;;;5076340;28;20401;-35
2021/05/25 11:34:12;;;;;;;1.60;1.35;;;21.60;53.00;;;;;;5087716;28;20077;-34
2021/05/25 11:36:38;;;;;;;2.30;1.17;;;21.60;53.60;;;;;;5091521;28;20025;-34
2021/05/25 11:39:09;;;;;;;3.08;1.02;;;21.60;53.40;;;;;;5092699;28;20382;-34
2021/05/25 11:41:34;;;;;;;1.40;1.13;;;21.60;53.50;;;;;;5072081;28;20039;-35
2021/05/25 11:44:05;;;;;;;2.55;1.15;;;21.70;53.70;;;;;;5090104;28;20042;-35
2021/05/25 11:46:47;;;;;;;1.60;1.02;;;21.60;53.60;;;;;;5091382;28;20039;-35
2021/05/25 11:49:13;;;;;;;1.67;1.00;;;21.70;53.60;;;;;;5087635;28;20033;-36
2021/05/25 11:51:39;;;;;;;1.98;1.25;;;21.70;53.70;;;;;;5091194;28;20020;-34
2021/05/25 11:54:20;;;;;;;1.55;1.27;;;21.70;53.70;;;;;;5092334;28;20036;-35
2021/05/25 11:56:51;;;;;;;2.25;1.00;;;21.70;53.70;;;;;;5088752;28;20075;-36
2021/05/25 11:59:18;;;;;;;1.58;1.27;;;21.70;53.70;;;;;;5074592;28;20555;-33
2021/05/25 12:01:53;;;;;;;1.85;1.10;;;21.70;53.70;;;;;;5090248;28;20040;-34
2021/05/25 12:04:20;;;;;;;2.78;1.23;;;21.70;53.60;;;;;;5088846;28;20642;-36
2021/05/25 12:06:59;;;;;;;1.73;1.13;;;21.70;53.70;;;;;;5088468;28;20024;-38
2021/05/25 12:09:28;;;;;;;2.08;1.10;;;21.70;53.70;;;;;;5099941;28;20066;-31
2021/05/25 12:11:56;;;;;;;2.42;1.20;;;21.70;53.70;;;;;;5089302;28;20107;-34
2021/05/25 12:14:27;;;;;;;2.45;1.20;;;21.60;53.70;;;;;;5096528;28;20028;-35
2021/05/25 12:16:57;;;;;;;1.88;1.00;;;21.60;53.60;;;;;;5062008;28;20792;-33
2021/05/25 12:19:23;;;;;;;1.40;1.30;;;21.70;53.60;;;;;;5087772;28;20041;-35
2021/05/25 12:21:48;;;;;;;1.33;1.23;;;21.70;53.50;;;;;;5087424;28;20028;-43
2021/05/25 12:24:24;;;;;;;1.90;1.17;;;21.60;53.60;;;;;;5094381;28;20119;-42
2021/05/25 12:26:50;;;;;;;1.80;1.08;;;21.60;54.30;;;;;;5075618;28;20036;-35
2021/05/25 12:29:15;;;;;;;1.42;0.90;;;21.70;53.50;;;;;;5089294;28;20087;-36
2021/05/25 12:31:41;;;;;;;1.88;1.10;;;21.70;53.60;;;;;;5086992;28;20030;-35
2021/05/25 12:34:07;;;;;;;1.33;1.20;;;21.70;53.60;;;;;;5075240;28;20020;-36
2021/05/25 12:36:38;;;;;;;1.17;0.93;;;21.60;53.90;;;;;;5078616;28;20516;-35
2021/05/25 12:39:19;;;;;;;3.53;1.30;;;21.70;53.80;;;;;;5094784;28;20032;-40
2021/05/25 12:41:50;;;;;;;4.80;0.93;;;21.70;53.70;;;;;;5092247;28;20119;-34
2021/05/25 12:44:19;;;;;;;2.17;0.90;;;21.70;53.60;;;;;;5092068;28;20738;-36
2021/05/25 12:46:59;;;;;;;1.55;1.13;;;21.70;53.50;;;;;;5093231;28;20103;-33
2021/05/25 12:49:47;;;;;;;1.75;1.23;;;21.70;53.40;;;;;;5090941;28;20031;-37
2021/05/25 12:52:19;;;;;;;1.42;1.08;;;21.80;53.40;;;;;;5073680;28;20032;-38
2021/05/25 12:54:55;;;;;;;2.53;1.10;;;21.80;53.30;;;;;;5092127;28;20051;-36
2021/05/25 12:57:21;;;;;;;1.75;1.13;;;21.80;53.00;;;;;;5095761;28;20055;-36
2021/05/25 13:00:03;;;;;;;1.10;0.90;;;21.80;53.10;;;;;;5090960;28;20489;-34
2021/05/25 13:02:42;;;;;;;0.82;0.82;;;21.80;53.20;;;;;;5091366;28;20062;-35